Time;durP1;ratioP1;P1;durP2;ratioP2;P2;SDS_P1;SDS_P2;PMS_P1;PMS_P2;Temp;Humidity;BMP_temperature;BMP_pressure;BME280_temperature;BME280_humidity;BME280_pressure;Samples;Min_cycle;Max_cycle;Signal;HPM_P1;HPM_P2
2023/01/20 00:01:08;;;;;;;37.97;21.90;;;;;;;-1.29;100.00;99815.16;5077039;28;20263;-74
2023/01/20 00:03:35;;;;;;;42.17;22.90;;;;;;;-1.28;100.00;99814.28;5074402;28;20204;-76
2023/01/20 00:06:03;;;;;;;40.15;22.23;;;;;;;-1.27;100.00;99818.69;5064861;28;20252;-76
2023/01/20 00:08:30;;;;;;;36.28;20.65;;;;;;;-1.34;100.00;99825.75;5056627;28;20251;-77
2023/01/20 00:10:56;;;;;;;39.75;21.55;;;;;;;-1.37;100.00;99823.16;5040366;28;20300;-77
2023/01/20 00:13:23;;;;;;;42.25;21.95;;;;;;;-1.44;100.00;99826.72;5041679;28;20207;-76
2023/01/20 00:15:49;;;;;;;42.03;22.38;;;;;;;-1.43;100.00;99832.88;5047810;28;20231;-77
2023/01/20 00:18:16;;;;;;;41.03;22.10;;;;;;;-1.51;100.00;99831.16;5047984;28;20201;-76
2023/01/20 00:20:42;;;;;;;34.97;22.05;;;;;;;-1.50;100.00;99838.19;5058753;28;20231;-78
2023/01/20 00:23:10;;;;;;;40.10;21.42;;;;;;;-1.44;100.00;99845.22;5055355;28;20211;-75
2023/01/20 00:25:37;;;;;;;37.92;22.73;;;;;;;-1.60;100.00;99841.78;5052532;28;20228;-75
2023/01/20 00:28:04;;;;;;;38.53;22.08;;;;;;;-1.61;100.00;99850.56;5052660;28;20246;-75
2023/01/20 00:30:31;;;;;;;41.58;22.52;;;;;;;-1.58;100.00;99845.28;5070123;28;20200;-77
2023/01/20 00:32:58;;;;;;;40.47;23.35;;;;;;;-1.50;100.00;99850.53;5070127;28;20457;-75
2023/01/20 00:35:24;;;;;;;43.42;22.15;;;;;;;-1.41;100.00;99849.59;5072316;28;20256;-78
2023/01/20 00:37:51;;;;;;;44.88;24.67;;;;;;;-1.39;100.00;99856.63;5069725;28;20196;-76
2023/01/20 00:40:19;;;;;;;39.40;22.30;;;;;;;-1.36;100.00;99851.31;5065932;28;20203;-75
2023/01/20 00:42:46;;;;;;;41.20;23.70;;;;;;;-1.30;100.00;99853.94;5050061;28;20218;-76
2023/01/20 00:45:12;;;;;;;36.38;21.27;;;;;;;-1.18;100.00;99858.25;5049284;28;20239;-76
2023/01/20 00:47:39;;;;;;;40.45;22.30;;;;;;;-1.17;100.00;99862.66;5049122;28;20225;-76
2023/01/20 00:50:06;;;;;;;46.05;22.45;;;;;;;-1.12;100.00;99866.16;5068127;28;20201;-77
2023/01/20 00:52:33;;;;;;;41.10;22.15;;;;;;;-1.12;100.00;99879.34;5068318;28;20203;-75
2023/01/20 00:54:59;;;;;;;46.03;24.73;;;;;;;-1.11;100.00;99875.84;5067664;28;20273;-76
2023/01/20 00:57:27;;;;;;;40.42;22.80;;;;;;;-1.03;100.00;99877.56;5067391;28;20206;-74
2023/01/20 00:59:54;;;;;;;42.00;23.30;;;;;;;-0.93;100.00;99880.09;5067535;28;20228;-76
2023/01/20 01:02:20;;;;;;;39.20;22.63;;;;;;;-0.94;100.00;99875.72;5067941;28;20671;-76
2023/01/20 01:04:50;;;;;;;37.20;22.80;;;;;;;-0.87;100.00;99876.56;5067904;28;20252;-76
2023/01/20 01:07:17;;;;;;;42.13;21.70;;;;;;;-0.81;100.00;99873.88;5065390;28;20287;-75
2023/01/20 01:09:43;;;;;;;45.75;24.75;;;;;;;-0.73;100.00;99885.25;5064270;28;20291;-75
2023/01/20 01:12:10;;;;;;;44.17;23.75;;;;;;;-0.70;100.00;99889.63;5064382;28;20247;-77
2023/01/20 01:14:38;;;;;;;41.88;22.92;;;;;;;-0.63;100.00;99891.38;5060933;28;20306;-77
2023/01/20 01:17:04;;;;;;;41.63;22.88;;;;;;;-0.61;100.00;99893.97;5061326;28;20204;-77
2023/01/20 01:19:31;;;;;;;43.60;22.52;;;;;;;-0.65;100.00;99891.38;5061332;28;20196;-76
2023/01/20 01:21:58;;;;;;;42.03;22.40;;;;;;;-0.66;100.00;99896.66;5049968;28;20198;-76
2023/01/20 01:24:24;;;;;;;38.50;23.67;;;;;;;-0.63;100.00;99894.00;5039959;28;20609;-77
2023/01/20 01:26:53;;;;;;;37.70;21.90;;;;;;;-0.59;100.00;99905.44;5040177;28;20232;-77
2023/01/20 01:29:19;;;;;;;39.78;23.52;;;;;;;-0.57;100.00;99898.34;5039956;28;20203;-76
2023/01/20 01:31:47;;;;;;;35.70;21.00;;;;;;;-0.58;100.00;99908.06;5049164;28;20238;-75
2023/01/20 01:34:15;;;;;;;37.42;21.52;;;;;;;-0.51;100.00;99909.78;5052943;28;20260;-76
2023/01/20 01:36:42;;;;;;;39.22;21.00;;;;;;;-0.49;100.00;99915.94;5040512;28;20212;-77
2023/01/20 01:39:08;;;;;;;48.50;23.92;;;;;;;-0.58;100.00;99913.38;5039082;28;20577;-76
2023/01/20 01:41:35;;;;;;;43.33;21.85;;;;;;;-0.74;100.00;99915.25;5038965;28;20211;-77
2023/01/20 01:44:06;;;;;;;56.65;25.02;;;;;;;-0.68;100.00;99914.31;5044702;28;20198;-78
2023/01/20 01:46:33;;;;;;;39.67;23.20;;;;;;;-0.57;100.00;99916.88;5039909;28;20292;-76
2023/01/20 01:49:04;;;;;;;42.67;22.30;;;;;;;-0.52;100.00;99912.41;5049135;28;20202;-76
2023/01/20 01:51:36;;;;;;;45.95;24.05;;;;;;;-0.40;100.00;99919.41;5069003;28;20262;-75
2023/01/20 01:54:06;;;;;;;49.97;25.15;;;;;;;-0.47;100.00;99914.16;5069240;28;20253;-76
2023/01/20 01:56:33;;;;;;;50.83;23.77;;;;;;;-0.42;100.00;99916.75;5067989;28;20255;-76
2023/01/20 01:59:02;;;;;;;64.18;24.90;;;;;;;-0.53;100.00;99915.97;5055418;28;20259;-76
2023/01/20 02:01:30;;;;;;;51.53;24.92;;;;;;;-0.48;100.00;99922.09;5042427;28;20268;-77
2023/01/20 02:04:03;;;;;;;48.20;25.35;;;;;;;-0.47;100.00;99922.09;5042660;28;20210;-77
2023/01/20 02:06:36;;;;;;;57.45;25.23;;;;;;;-0.44;100.00;99926.47;5045372;28;20282;-76
2023/01/20 02:09:04;;;;;;;55.40;24.10;;;;;;;-0.45;100.00;99928.25;5048715;28;20189;-76
2023/01/20 02:11:35;;;;;;;91.25;27.40;;;;;;;-0.54;100.00;99930.06;5056315;28;20184;-75
2023/01/20 02:14:02;;;;;;;98.57;27.70;;;;;;;-0.52;100.00;99938.88;5073750;28;20193;-75
2023/01/20 02:16:36;;;;;;;59.63;26.70;;;;;;;-0.51;100.00;99938.88;5075141;28;20272;-75
2023/01/20 02:19:28;;;;;;;106.68;28.48;;;;;;;-0.56;100.00;99943.31;5075490;28;20255;-74
2023/01/20 02:22:07;;;;;;;104.78;28.63;;;;;;;-0.70;100.00;99947.81;5077428;28;20202;-75
2023/01/20 02:25:28;;;;;;;77.72;23.95;;;;;;;-0.65;100.00;99948.69;5077409;28;20267;-74
2023/01/20 02:28:20;;;;;;;131.13;29.50;;;;;;;-0.64;100.00;99961.00;5001230;28;20650;-76
2023/01/20 02:31:02;;;;;;;56.60;22.45;;;;;;;-0.62;100.00;99959.22;4998867;28;20226;-77
2023/01/20 02:33:35;;;;;;;71.47;24.23;;;;;;;-0.63;100.00;99965.44;4997582;28;20208;-76
2023/01/20 02:36:06;;;;;;;34.70;22.20;;;;;;;-0.67;100.00;99964.56;4997622;28;20310;-77
2023/01/20 02:38:37;;;;;;;87.28;26.17;;;;;;;-0.73;100.00;99972.53;4983754;28;20203;-76
2023/01/20 02:41:10;;;;;;;48.75;20.83;;;;;;;-0.70;100.00;99972.53;4977000;28;20209;-77
2023/01/20 02:43:44;;;;;;;126.40;25.02;;;;;;;-0.78;100.00;99987.53;4978181;28;20217;-77
2023/01/20 02:46:18;;;;;;;93.82;25.23;;;;;;;-1.01;100.00;99987.66;4977419;28;20227;-77
2023/01/20 02:48:52;;;;;;;67.57;23.40;;;;;;;-0.92;100.00;99989.41;4987830;28;20190;-77
2023/01/20 02:51:24;;;;;;;53.28;23.55;;;;;;;-0.90;100.00;99988.50;4996460;28;20204;-77
2023/01/20 02:53:54;;;;;;;73.50;23.60;;;;;;;-1.01;100.00;99992.97;4996751;28;20218;-77
2023/01/20 02:56:25;;;;;;;98.95;25.98;;;;;;;-1.00;100.00;99996.47;4981746;28;20228;-77
2023/01/20 02:58:56;;;;;;;138.82;32.88;;;;;;;-1.01;100.00;99987.66;5016684;28;20313;-77
2023/01/20 03:01:26;;;;;;;72.05;23.48;;;;;;;-0.95;100.00;99987.66;5040388;28;20209;-77
2023/01/20 03:03:57;;;;;;;91.95;23.10;;;;;;;-0.99;100.00;99995.59;5047271;28;20209;-73
2023/01/20 03:06:28;;;;;;;107.75;27.33;;;;;;;-0.97;100.00;99996.44;5073418;28;20268;-74
2023/01/20 03:08:56;;;;;;;119.45;24.48;;;;;;;-1.05;100.00;99997.38;5057248;28;20201;-73
2023/01/20 03:11:23;;;;;;;41.08;19.00;;;;;;;-0.90;100.00;100007.00;5057782;28;20255;-74
2023/01/20 03:13:54;;;;;;;45.08;21.10;;;;;;;-0.83;100.00;100005.22;5057844;28;20217;-74
2023/01/20 03:16:24;;;;;;;68.32;22.60;;;;;;;-0.76;100.00;100001.63;5057684;28;20284;-74
2023/01/20 03:18:52;;;;;;;60.45;21.17;;;;;;;-0.83;100.00;99999.91;5057091;28;20241;-74
2023/01/20 03:21:20;;;;;;;82.95;24.50;;;;;;;-0.81;100.00;100006.09;5057084;28;20216;-74
2023/01/20 03:23:50;;;;;;;54.83;22.08;;;;;;;-0.78;100.00;100018.41;5056056;28;20225;-74
2023/01/20 03:26:18;;;;;;;41.72;19.42;;;;;;;-0.78;100.00;100019.28;5050646;28;20311;-75
2023/01/20 03:28:47;;;;;;;62.50;22.30;;;;;;;-0.75;100.00;100021.03;5071701;28;20284;-75
2023/01/20 03:31:17;;;;;;;64.88;20.70;;;;;;;-0.80;100.00;100028.09;5071407;28;20204;-76
2023/01/20 03:33:46;;;;;;;37.20;20.20;;;;;;;-0.77;100.00;100028.97;5063961;28;20241;-77
2023/01/20 03:36:15;;;;;;;32.60;18.83;;;;;;;-0.68;100.00;100028.94;5061039;28;20282;-77
2023/01/20 03:38:44;;;;;;;67.07;22.98;;;;;;;-0.78;100.00;100032.50;5043763;28;20201;-76
2023/01/20 03:41:20;;;;;;;32.85;18.83;;;;;;;-0.69;100.00;100035.09;5043915;28;20201;-76
2023/01/20 03:43:55;;;;;;;89.93;23.92;;;;;;;-0.84;100.00;100040.44;5043756;28;20238;-76
2023/01/20 03:46:32;;;;;;;54.63;20.38;;;;;;;-0.95;100.00;100031.69;5047666;28;20315;-75
2023/01/20 03:49:08;;;;;;;38.15;18.00;;;;;;;-0.83;100.00;100034.28;5068942;28;20211;-75
2023/01/20 03:51:46;;;;;;;40.15;20.33;;;;;;;-0.73;100.00;100038.63;5069816;28;20208;-75
2023/01/20 03:54:21;;;;;;;103.75;27.38;;;;;;;-0.65;100.00;100035.97;5067218;28;20202;-77
2023/01/20 03:56:54;;;;;;;58.80;21.52;;;;;;;-0.70;100.00;100038.63;5067003;28;20188;-76
2023/01/20 03:59:23;;;;;;;73.82;21.38;;;;;;;-0.85;100.00;100034.28;5063746;28;20210;-77
2023/01/20 04:01:50;;;;;;;59.00;20.88;;;;;;;-0.80;100.00;100042.19;5063727;28;20203;-76
2023/01/20 04:04:19;;;;;;;48.30;23.02;;;;;;;-0.76;100.00;100043.94;5065826;28;20205;-77
2023/01/20 04:06:49;;;;;;;47.85;20.33;;;;;;;-0.72;100.00;100039.53;5060925;28;20271;-77
2023/01/20 04:09:25;;;;;;;34.25;20.42;;;;;;;-0.68;100.00;100055.38;5066308;28;20201;-75
2023/01/20 04:11:52;;;;;;;39.95;20.65;;;;;;;-0.72;100.00;100058.91;5049340;28;20646;-76
2023/01/20 04:14:18;;;;;;;39.80;19.85;;;;;;;-0.73;100.00;100064.19;5051635;28;20333;-76
2023/01/20 04:16:51;;;;;;;165.80;32.65;;;;;;;-0.76;100.00;100069.53;5052796;28;20259;-75
2023/01/20 04:19:18;;;;;;;45.13;21.52;;;;;;;-0.78;100.00;100066.88;5046532;28;20211;-76
2023/01/20 04:21:48;;;;;;;38.85;22.98;;;;;;;-0.69;100.00;100063.31;5064354;28;20193;-77
2023/01/20 04:24:24;;;;;;;59.67;23.23;;;;;;;-0.73;100.00;100064.19;5064391;28;20204;-77
2023/01/20 04:26:50;;;;;;;67.20;22.05;;;;;;;-0.80;100.00;100063.34;5068264;28;20252;-76
2023/01/20 04:29:17;;;;;;;56.10;23.55;;;;;;;-0.87;100.00;100062.50;5062867;28;20204;-77
2023/01/20 04:31:43;;;;;;;61.63;21.58;;;;;;;-0.92;100.00;100066.06;5060600;28;20196;-77
2023/01/20 04:34:14;;;;;;;99.10;27.63;;;;;;;-0.91;100.00;100068.69;5061188;28;20204;-75
2023/01/20 04:36:40;;;;;;;64.80;24.50;;;;;;;-0.87;100.00;100072.19;5063147;28;20266;-79
2023/01/20 04:39:07;;;;;;;40.65;20.05;;;;;;;-0.81;100.00;100074.81;5062976;28;20203;-77
2023/01/20 04:41:35;;;;;;;53.83;21.25;;;;;;;-0.78;100.00;100066.88;5043019;28;20205;-75
2023/01/20 04:44:02;;;;;;;45.10;20.83;;;;;;;-0.86;100.00;100058.09;5041998;28;20211;-75
2023/01/20 04:46:29;;;;;;;44.70;20.33;;;;;;;-0.77;100.00;100057.16;5044105;28;20224;-77
2023/01/20 04:48:55;;;;;;;40.00;20.10;;;;;;;-0.78;100.00;100061.59;5062459;28;20227;-76
2023/01/20 04:51:22;;;;;;;57.55;22.20;;;;;;;-0.77;100.00;100068.66;5046853;28;20269;-76
2023/01/20 04:53:48;;;;;;;58.58;23.38;;;;;;;-0.89;100.00;100066.03;5065285;28;20557;-75
2023/01/20 04:56:16;;;;;;;41.58;21.95;;;;;;;-0.91;100.00;100073.09;5065469;28;20228;-74
2023/01/20 04:58:43;;;;;;;52.00;21.90;;;;;;;-0.94;100.00;100081.03;5047385;28;20495;-76
2023/01/20 05:01:10;;;;;;;47.35;22.15;;;;;;;-0.97;100.00;100089.88;5047084;28;20201;-75
2023/01/20 05:03:37;;;;;;;38.10;20.73;;;;;;;-0.91;100.00;100084.53;5054215;28;20204;-77
2023/01/20 05:06:05;;;;;;;39.78;21.08;;;;;;;-0.83;100.00;100087.16;5046181;28;20225;-75
2023/01/20 05:08:31;;;;;;;44.78;21.13;;;;;;;-0.90;100.00;100098.66;5042667;28;20293;-76
2023/01/20 05:10:58;;;;;;;45.08;21.55;;;;;;;-0.95;100.00;100097.78;5043202;28;20340;-77
2023/01/20 05:13:25;;;;;;;51.92;20.40;;;;;;;-1.22;100.00;100099.63;5044829;28;20205;-77
2023/01/20 05:15:52;;;;;;;45.28;22.98;;;;;;;-1.12;100.00;100096.06;5063983;28;20224;-76
2023/01/20 05:18:19;;;;;;;50.78;20.52;;;;;;;-0.96;100.00;100098.69;5063064;28;20295;-75
2023/01/20 05:20:46;;;;;;;56.72;21.40;;;;;;;-0.96;100.00;100111.91;5064007;28;20235;-76
2023/01/20 05:23:12;;;;;;;60.33;21.60;;;;;;;-0.97;100.00;100097.81;5064325;28;20202;-76
2023/01/20 05:25:39;;;;;;;45.15;20.27;;;;;;;-0.92;100.00;100111.00;5061459;28;20267;-76
2023/01/20 05:28:06;;;;;;;49.25;22.90;;;;;;;-0.92;100.00;100117.16;5061184;28;20589;-76
2023/01/20 05:30:33;;;;;;;46.45;21.38;;;;;;;-0.91;100.00;100120.69;5062101;28;20210;-76
2023/01/20 05:33:01;;;;;;;49.65;22.55;;;;;;;-1.01;100.00;100124.25;5063064;28;20368;-76
2023/01/20 05:35:27;;;;;;;50.97;22.25;;;;;;;-0.93;100.00;100123.31;5045964;28;20231;-76
2023/01/20 05:37:54;;;;;;;47.75;21.63;;;;;;;-0.87;100.00;100125.09;5060946;28;20207;-77
2023/01/20 05:40:21;;;;;;;54.88;22.10;;;;;;;-0.83;100.00;100124.19;5070205;28;20207;-75
2023/01/20 05:42:48;;;;;;;41.58;20.98;;;;;;;-0.87;100.00;100125.94;5077810;28;20232;-74
2023/01/20 05:45:14;;;;;;;53.80;23.25;;;;;;;-0.87;100.00;100127.72;5072769;28;20259;-76
2023/01/20 05:47:41;;;;;;;44.70;21.70;;;;;;;-0.72;100.00;100129.44;5073075;28;20211;-78
2023/01/20 05:50:10;;;;;;;46.83;21.75;;;;;;;-0.76;100.00;100132.97;5065064;28;20669;-75
2023/01/20 05:52:37;;;;;;;45.03;21.38;;;;;;;-0.75;100.00;100142.66;5069464;28;20198;-77
2023/01/20 05:55:04;;;;;;;48.67;21.73;;;;;;;-0.65;100.00;100142.63;5063609;28;20248;-76
2023/01/20 05:57:31;;;;;;;44.80;21.17;;;;;;;-0.66;100.00;100147.91;5059722;28;20207;-76
2023/01/20 05:59:57;;;;;;;50.25;22.58;;;;;;;-0.75;100.00;100150.59;5061040;28;20267;-77
2023/01/20 06:02:24;;;;;;;49.83;22.20;;;;;;;-0.75;100.00;100138.25;5061241;28;20219;-74
2023/01/20 06:04:51;;;;;;;56.45;21.08;;;;;;;-0.72;100.00;100150.59;5060761;28;20247;-74
2023/01/20 06:07:19;;;;;;;51.95;24.83;;;;;;;-0.86;100.00;100147.97;5060751;28;20206;-77
2023/01/20 06:09:46;;;;;;;50.20;23.20;;;;;;;-0.79;100.00;100148.84;5059762;28;20215;-76
2023/01/20 06:12:12;;;;;;;50.08;21.70;;;;;;;-0.70;100.00;100157.66;5060400;28;20522;-75
2023/01/20 06:14:39;;;;;;;42.72;22.88;;;;;;;-0.59;100.00;100167.28;5060208;28;20242;-75
2023/01/20 06:17:05;;;;;;;71.07;24.55;;;;;;;-0.79;100.00;100170.00;5059701;28;20294;-76
2023/01/20 06:19:32;;;;;;;51.38;23.33;;;;;;;-0.82;100.00;100165.59;5059017;28;20207;-77
2023/01/20 06:21:58;;;;;;;52.22;23.02;;;;;;;-0.73;100.00;100172.63;5060108;28;20215;-75
2023/01/20 06:24:26;;;;;;;62.72;25.50;;;;;;;-0.78;100.00;100183.22;5059829;28;20294;-75
2023/01/20 06:26:53;;;;;;;53.20;21.98;;;;;;;-0.79;100.00;100185.84;5058657;28;20204;-76
2023/01/20 06:29:19;;;;;;;54.47;22.17;;;;;;;-0.76;100.00;100189.38;5061595;28;20326;-75
2023/01/20 06:31:46;;;;;;;67.47;25.73;;;;;;;-0.89;100.00;100192.94;5062468;28;20268;-77
2023/01/20 06:34:13;;;;;;;51.40;24.52;;;;;;;-0.95;100.00;100195.59;5060540;28;20306;-76
2023/01/20 06:36:39;;;;;;;56.78;23.60;;;;;;;-0.78;100.00;100193.81;5063045;28;20624;-75
2023/01/20 06:39:06;;;;;;;56.10;23.67;;;;;;;-0.87;100.00;100204.41;5063111;28;20292;-76
2023/01/20 06:41:34;;;;;;;48.30;24.55;;;;;;;-0.79;100.00;100202.63;5061051;28;20204;-76
2023/01/20 06:44:01;;;;;;;47.05;23.38;;;;;;;-0.75;100.00;100204.34;5061573;28;20212;-76
2023/01/20 06:46:27;;;;;;;45.03;24.20;;;;;;;-0.66;100.00;100206.09;5060812;28;20295;-76
2023/01/20 06:48:59;;;;;;;64.50;26.17;;;;;;;-0.68;100.00;100205.22;5061016;28;20310;-75
2023/01/20 06:51:26;;;;;;;50.42;23.80;;;;;;;-0.53;100.00;100220.19;5061478;28;20207;-75
2023/01/20 06:53:53;;;;;;;52.42;23.63;;;;;;;-0.72;100.00;100220.25;5060447;28;20207;-76
2023/01/20 06:56:20;;;;;;;45.67;22.63;;;;;;;-0.72;100.00;100220.25;5060637;28;20216;-76
2023/01/20 06:58:48;;;;;;;45.75;22.20;;;;;;;-0.64;100.00;100222.84;5060709;28;20196;-77
2023/01/20 07:01:18;;;;;;;53.80;23.85;;;;;;;-0.63;100.00;100229.91;5064983;28;20271;-76
2023/01/20 07:03:45;;;;;;;48.13;23.25;;;;;;;-0.82;100.00;100230.84;5074747;28;20265;-75
2023/01/20 07:06:16;;;;;;;47.05;22.48;;;;;;;-0.72;100.00;100236.09;5075316;28;20259;-75
2023/01/20 07:08:43;;;;;;;46.47;21.80;;;;;;;-0.64;100.00;100229.00;5075754;28;20277;-75
2023/01/20 07:11:10;;;;;;;48.90;22.63;;;;;;;-0.51;100.00;100221.94;5071160;28;20202;-76
2023/01/20 07:13:36;;;;;;;43.75;21.70;;;;;;;-0.49;100.00;100230.75;5064090;28;20681;-77
2023/01/20 07:16:04;;;;;;;55.67;23.52;;;;;;;-0.48;100.00;100239.56;5064584;28;20226;-76
2023/01/20 07:18:31;;;;;;;50.55;24.55;;;;;;;-0.68;100.00;100247.53;5062141;28;20287;-78
2023/01/20 07:20:59;;;;;;;48.03;23.38;;;;;;;-0.73;100.00;100236.97;5063444;28;20326;-76
2023/01/20 07:23:26;;;;;;;56.08;24.35;;;;;;;-0.84;100.00;100249.34;5063121;28;20208;-76
2023/01/20 07:25:59;;;;;;;45.72;22.65;;;;;;;-0.77;100.00;100252.84;5063284;28;20683;-74
2023/01/20 07:28:26;;;;;;;41.63;21.10;;;;;;;-0.85;100.00;100247.59;5059411;28;20570;-76
2023/01/20 07:30:53;;;;;;;43.13;22.08;;;;;;;-0.76;100.00;100252.84;5061235;28;20292;-77
2023/01/20 07:33:20;;;;;;;39.90;20.90;;;;;;;-0.77;100.00;100258.13;5059784;28;20299;-76
2023/01/20 07:35:51;;;;;;;47.55;23.10;;;;;;;-0.66;100.00;100259.91;5058300;28;20311;-77
2023/01/20 07:38:18;;;;;;;38.58;21.73;;;;;;;-0.69;100.00;100259.91;5055527;28;20227;-77
2023/01/20 07:40:45;;;;;;;40.38;21.05;;;;;;;-0.74;100.00;100259.03;5056978;28;20204;-79
2023/01/20 07:43:11;;;;;;;47.08;21.70;;;;;;;-0.69;100.00;100273.13;5057202;28;20235;-77
2023/01/20 07:45:38;;;;;;;44.45;20.45;;;;;;;-0.63;100.00;100262.53;5057589;28;20311;-77
2023/01/20 07:48:06;;;;;;;37.95;20.65;;;;;;;-0.54;100.00;100269.56;5061332;28;20472;-77
2023/01/20 07:50:34;;;;;;;44.30;22.35;;;;;;;-0.51;100.00;100279.28;5064853;28;20234;-74
2023/01/20 07:53:01;;;;;;;34.90;20.52;;;;;;;-0.48;100.00;100281.91;5073330;28;20239;-74
2023/01/20 07:55:27;;;;;;;44.42;21.20;;;;;;;-0.57;100.00;100277.50;5070014;28;20222;-74
2023/01/20 07:57:55;;;;;;;38.67;21.25;;;;;;;-0.45;100.00;100281.91;5064323;28;20209;-77
2023/01/20 08:00:22;;;;;;;33.25;21.63;;;;;;;-0.34;100.00;100284.50;5058925;28;20272;-76
2023/01/20 08:02:48;;;;;;;36.53;19.63;;;;;;;-0.27;100.00;100289.78;5058909;28;20211;-77
2023/01/20 08:05:15;;;;;;;34.33;20.67;;;;;;;-0.16;100.00;100283.56;5059034;28;20226;-77
2023/01/20 08:07:43;;;;;;;37.28;20.75;;;;;;;-0.03;100.00;100293.22;5058451;28;20211;-76
2023/01/20 08:10:10;;;;;;;36.53;20.83;;;;;;;-0.09;100.00;100293.25;5059300;28;20663;-76
2023/01/20 08:12:39;;;;;;;38.25;19.98;;;;;;;0.04;100.00;100304.69;5059920;28;20205;-78
2023/01/20 08:15:08;;;;;;;36.15;19.48;;;;;;;0.09;100.00;100309.09;5060342;28;20252;-76
2023/01/20 08:17:36;;;;;;;34.97;19.70;;;;;;;0.14;100.00;100299.34;5062410;28;20206;-77
2023/01/20 08:20:04;;;;;;;30.85;18.75;;;;;;;0.08;100.00;100302.00;5061834;28;20666;-77
2023/01/20 08:22:30;;;;;;;34.58;18.60;;;;;;;0.14;100.00;100303.75;5061161;28;20617;-77
2023/01/20 08:24:58;;;;;;;41.22;21.30;;;;;;;0.01;100.00;100307.34;5059151;28;20233;-77
2023/01/20 08:27:25;;;;;;;31.80;17.63;;;;;;;-0.08;100.00;100303.84;5059771;28;20699;-76
2023/01/20 08:29:54;;;;;;;39.42;20.40;;;;;;;0.06;100.00;100314.38;5059887;28;20588;-76
2023/01/20 08:32:21;;;;;;;36.17;20.05;;;;;;;0.14;100.00;100320.53;5065485;28;20200;-78
2023/01/20 08:34:47;;;;;;;35.00;19.88;;;;;;;0.04;100.00;100317.91;5062553;28;20224;-79
2023/01/20 08:37:14;;;;;;;33.25;19.65;;;;;;;0.12;100.00;100327.59;5061154;28;20202;-79
2023/01/20 08:39:40;;;;;;;26.38;17.60;;;;;;;0.26;100.00;100331.97;5060160;28;20662;-78
2023/01/20 08:42:08;;;;;;;33.15;20.52;;;;;;;0.15;100.00;100324.94;5065903;28;20203;-76
2023/01/20 08:44:35;;;;;;;31.02;18.40;;;;;;;0.23;100.00;100332.84;5075174;28;20751;-75
2023/01/20 08:47:02;;;;;;;35.30;20.08;;;;;;;0.28;100.00;100332.84;5076463;28;20211;-76
2023/01/20 08:49:29;;;;;;;33.63;19.15;;;;;;;0.31;100.00;100331.03;5074493;28;20224;-74
2023/01/20 08:51:55;;;;;;;29.65;17.98;;;;;;;0.25;100.00;100331.09;5063974;28;20215;-77
2023/01/20 08:54:22;;;;;;;32.50;19.52;;;;;;;0.30;100.00;100326.63;5064040;28;20201;-75
2023/01/20 08:56:50;;;;;;;41.92;20.50;;;;;;;0.25;100.00;100335.47;5060545;28;20693;-77
2023/01/20 08:59:18;;;;;;;35.08;18.70;;;;;;;0.24;100.00;100339.03;5060116;28;20209;-76
2023/01/20 09:01:45;;;;;;;32.85;19.92;;;;;;;0.11;100.00;100344.34;5058542;28;20744;-76
2023/01/20 09:04:12;;;;;;;33.65;19.45;;;;;;;0.19;100.00;100342.56;5058191;28;20204;-76
2023/01/20 09:06:41;;;;;;;31.33;19.05;;;;;;;0.20;100.00;100357.59;5062135;28;20219;-76
2023/01/20 09:09:07;;;;;;;41.65;22.88;;;;;;;0.26;100.00;100350.50;5062344;28;20219;-76
2023/01/20 09:11:34;;;;;;;39.88;20.90;;;;;;;0.40;100.00;100354.84;5064042;28;20291;-76
2023/01/20 09:14:01;;;;;;;39.85;22.40;;;;;;;0.49;100.00;100356.56;5064078;28;20212;-76
2023/01/20 09:16:29;;;;;;;35.20;19.95;;;;;;;0.38;100.00;100361.91;5063530;28;20249;-77
2023/01/20 09:18:56;;;;;;;37.50;20.40;;;;;;;0.32;100.00;100371.69;5064713;28;20224;-78
2023/01/20 09:21:22;;;;;;;33.70;20.40;;;;;;;0.51;100.00;100373.34;5063947;28;20203;-76
2023/01/20 09:23:49;;;;;;;37.00;21.80;;;;;;;0.88;100.00;100377.56;5062625;28;20228;-77
2023/01/20 09:26:16;;;;;;;35.97;20.50;;;;;;;1.06;100.00;100374.78;5058214;28;20232;-77
2023/01/20 09:28:45;;;;;;;34.53;20.98;;;;;;;0.97;100.00;100382.81;5058556;28;20218;-77
2023/01/20 09:31:12;;;;;;;34.47;20.67;;;;;;;1.07;100.00;100383.63;5060953;28;20204;-76
2023/01/20 09:33:40;;;;;;;38.95;23.65;;;;;;;1.10;100.00;100388.91;5076218;28;20204;-76
2023/01/20 09:36:09;;;;;;;38.55;20.75;;;;;;;0.80;100.00;100393.53;5075635;28;20238;-76
2023/01/20 09:44:32;;;;;;;41.58;22.95;;;;;;;1.04;100.00;100393.38;5077528;28;20187;-75
2023/01/20 09:47:19;;;;;;;39.38;23.75;;;;;;;1.19;100.00;100399.47;5077623;28;20183;-75
2023/01/20 09:53:03;;;;;;;35.75;22.98;;;;;;;1.28;100.00;100401.16;5077134;28;20179;-74
2023/01/20 09:55:39;;;;;;;39.45;24.10;;;;;;;1.14;100.00;100395.97;5077671;28;20215;-75
2023/01/20 09:58:13;;;;;;;37.92;23.30;;;;;;;1.28;100.00;100393.22;5075672;28;20201;-74
2023/01/20 10:00:44;;;;;;;39.85;24.90;;;;;;;1.34;100.00;100391.38;5075782;28;20234;-76
2023/01/20 10:03:16;;;;;;;43.35;23.92;;;;;;;1.48;100.00;100391.28;5075582;28;20194;-77
2023/01/20 10:05:45;;;;;;;46.13;23.30;;;;;;;2.06;100.00;100387.19;5073196;28;20262;-75
2023/01/20 10:08:17;;;;;;;40.75;24.58;;;;;;;2.62;100.00;100388.31;5067364;28;20209;-75
2023/01/20 10:10:50;;;;;;;43.50;24.30;;;;;;;3.83;100.00;100382.00;5063547;28;20318;-78
2023/01/20 10:13:22;;;;;;;41.17;25.27;;;;;;;5.33;100.00;100384.16;5060109;28;20184;-78
2023/01/20 10:15:52;;;;;;;32.40;22.83;;;;;;;6.41;100.00;100382.25;5063284;28;20242;-77
2023/01/20 10:18:28;;;;;;;30.30;22.02;;;;;;;6.68;100.00;100383.22;5065374;28;20188;-77
2023/01/20 10:21:01;;;;;;;29.40;21.27;;;;;;;8.47;100.00;100372.84;5062990;28;20192;-76
2023/01/20 10:23:33;;;;;;;26.13;20.25;;;;;;;9.91;100.00;100376.09;5062211;28;20231;-77
2023/01/20 10:26:08;;;;;;;23.80;18.40;;;;;;;11.13;100.00;100377.75;5065977;28;20255;-76
2023/01/20 10:28:39;;;;;;;28.15;18.77;;;;;;;10.99;100.00;100385.59;5065009;28;20670;-75
2023/01/20 10:31:06;;;;;;;19.60;17.38;;;;;;;12.46;92.42;100386.31;5069944;28;20208;-75
2023/01/20 10:33:37;;;;;;;20.60;18.05;;;;;;;13.47;79.20;100379.84;5068780;28;20228;-76
2023/01/20 10:36:12;;;;;;;18.85;16.17;;;;;;;11.50;77.05;100378.63;5068238;28;20305;-76
2023/01/20 10:38:47;;;;;;;16.42;13.60;;;;;;;10.51;85.28;100382.41;5069125;28;20249;-77
2023/01/20 10:41:17;;;;;;;17.80;14.43;;;;;;;10.23;89.39;100380.94;5066235;28;20198;-75
2023/01/20 10:43:44;;;;;;;16.08;13.88;;;;;;;10.06;92.45;100378.09;5066096;28;20228;-75
2023/01/20 10:46:19;;;;;;;19.70;14.88;;;;;;;9.92;95.89;100383.19;5064563;28;20285;-76
2023/01/20 10:49:26;;;;;;;19.90;15.95;;;;;;;8.12;100.00;100376.81;5061952;28;20249;-76
2023/01/20 10:52:13;;;;;;;16.67;14.68;;;;;;;9.31;100.00;100381.25;5001723;28;20692;-77
2023/01/20 10:54:52;;;;;;;18.40;14.40;;;;;;;10.55;95.22;100377.78;5002722;28;20224;-77
2023/01/20 10:57:18;;;;;;;16.02;13.43;;;;;;;10.31;95.46;100375.25;4998062;28;20187;-76
2023/01/20 10:59:49;;;;;;;18.13;14.80;;;;;;;9.25;100.00;100392.25;4996083;28;20195;-76
2023/01/20 11:02:20;;;;;;;15.43;13.68;;;;;;;8.19;100.00;100393.56;4997531;28;20184;-78
2023/01/20 11:04:54;;;;;;;16.55;14.60;;;;;;;6.46;100.00;100387.47;4997913;28;20223;-76
2023/01/20 11:07:22;;;;;;;19.70;14.93;;;;;;;6.18;100.00;100374.00;4999066;28;20791;-76
2023/01/20 11:09:48;;;;;;;17.60;14.48;;;;;;;6.36;100.00;100383.31;4997574;28;20607;-78
2023/01/20 11:12:17;;;;;;;18.65;14.50;;;;;;;6.00;100.00;100378.06;4998219;28;20398;-77
2023/01/20 11:14:44;;;;;;;20.50;14.45;;;;;;;5.58;100.00;100389.75;5003730;28;20313;-74
2023/01/20 11:17:14;;;;;;;18.15;14.90;;;;;;;5.75;100.00;100377.78;5002050;28;20311;-75
2023/01/20 11:19:46;;;;;;;16.85;14.07;;;;;;;5.99;100.00;100385.19;5000477;28;20209;-75
2023/01/20 11:22:19;;;;;;;17.65;13.75;;;;;;;6.08;100.00;100373.34;4999675;28;20220;-76